sensor_id;sensor_type;location;lat;lon;timestamp;P1;durP1;ratioP1;P2;durP2;ratioP2
6374;SDS011;35400;45.472;-122.822;2023-03-05T00:01:54;1.03;;;0.60;;
6374;SDS011;35400;45.472;-122.822;2023-03-05T00:04:22;1.60;;;0.60;;
6374;SDS011;35400;45.472;-122.822;2023-03-05T00:06:48;1.80;;;0.90;;
6374;SDS011;35400;45.472;-122.822;2023-03-05T00:09:15;1.17;;;0.60;;
6374;SDS011;35400;45.472;-122.822;2023-03-05T00:11:42;1.03;;;0.60;;
6374;SDS011;35400;45.472;-122.822;2023-03-05T00:14:09;1.77;;;0.50;;
6374;SDS011;35400;45.472;-122.822;2023-03-05T00:16:36;0.60;;;0.50;;
6374;SDS011;35400;45.472;-122.822;2023-03-05T00:19:03;1.43;;;0.40;;
6374;SDS011;35400;45.472;-122.822;2023-03-05T00:21:35;1.63;;;0.63;;
6374;SDS011;35400;45.472;-122.822;2023-03-05T00:24:05;1.80;;;0.57;;
6374;SDS011;35400;45.472;-122.822;2023-03-05T00:26:35;1.57;;;0.73;;
6374;SDS011;35400;45.472;-122.822;2023-03-05T00:29:04;1.13;;;0.60;;
6374;SDS011;35400;45.472;-122.822;2023-03-05T00:31:33;0.90;;;0.40;;
6374;SDS011;35400;45.472;-122.822;2023-03-05T00:34:03;1.00;;;0.40;;
6374;SDS011;35400;45.472;-122.822;2023-03-05T00:36:33;1.67;;;0.70;;
6374;SDS011;35400;45.472;-122.822;2023-03-05T00:39:03;1.97;;;1.10;;
6374;SDS011;35400;45.472;-122.822;2023-03-05T00:41:30;1.70;;;0.40;;
6374;SDS011;35400;45.472;-122.822;2023-03-05T00:43:57;1.50;;;0.60;;
6374;SDS011;35400;45.472;-122.822;2023-03-05T00:46:24;0.83;;;0.60;;
6374;SDS011;35400;45.472;-122.822;2023-03-05T00:48:52;1.10;;;0.77;;
6374;SDS011;35400;45.472;-122.822;2023-03-05T00:51:20;1.53;;;0.63;;
6374;SDS011;35400;45.472;-122.822;2023-03-05T00:53:49;3.73;;;0.90;;
6374;SDS011;35400;45.472;-122.822;2023-03-05T00:56:16;2.70;;;0.77;;
6374;SDS011;35400;45.472;-122.822;2023-03-05T00:58:43;3.13;;;0.97;;
6374;SDS011;35400;45.472;-122.822;2023-03-05T01:01:10;1.10;;;0.60;;
6374;SDS011;35400;45.472;-122.822;2023-03-05T01:03:37;0.90;;;0.70;;
6374;SDS011;35400;45.472;-122.822;2023-03-05T01:06:06;2.43;;;0.83;;
6374;SDS011;35400;45.472;-122.822;2023-03-05T01:08:35;0.83;;;0.80;;
6374;SDS011;35400;45.472;-122.822;2023-03-05T01:11:03;3.10;;;0.87;;
6374;SDS011;35400;45.472;-122.822;2023-03-05T01:13:31;1.17;;;0.70;;
6374;SDS011;35400;45.472;-122.822;2023-03-05T01:15:58;2.20;;;1.07;;
6374;SDS011;35400;45.472;-122.822;2023-03-05T01:18:26;1.23;;;0.80;;
6374;SDS011;35400;45.472;-122.822;2023-03-05T01:20:52;1.33;;;0.93;;
6374;SDS011;35400;45.472;-122.822;2023-03-05T01:23:19;2.97;;;1.03;;
6374;SDS011;35400;45.472;-122.822;2023-03-05T01:25:56;3.00;;;0.77;;
6374;SDS011;35400;45.472;-122.822;2023-03-05T01:28:25;1.00;;;0.90;;
6374;SDS011;35400;45.472;-122.822;2023-03-05T01:30:52;2.63;;;0.73;;
6374;SDS011;35400;45.472;-122.822;2023-03-05T01:33:19;4.97;;;0.97;;
6374;SDS011;35400;45.472;-122.822;2023-03-05T01:35:46;2.57;;;0.87;;
6374;SDS011;35400;45.472;-122.822;2023-03-05T01:38:14;1.30;;;0.70;;
6374;SDS011;35400;45.472;-122.822;2023-03-05T01:40:41;2.27;;;0.80;;
6374;SDS011;35400;45.472;-122.822;2023-03-05T01:45:39;1.80;;;0.83;;
6374;SDS011;35400;45.472;-122.822;2023-03-05T01:48:41;1.57;;;0.80;;
6374;SDS011;35400;45.472;-122.822;2023-03-05T01:51:12;2.67;;;1.10;;
6374;SDS011;35400;45.472;-122.822;2023-03-05T01:53:39;2.10;;;1.07;;
6374;SDS011;35400;45.472;-122.822;2023-03-05T01:56:07;1.37;;;0.90;;
6374;SDS011;35400;45.472;-122.822;2023-03-05T01:58:34;3.00;;;1.13;;
6374;SDS011;35400;45.472;-122.822;2023-03-05T02:01:04;2.53;;;0.90;;
6374;SDS011;35400;45.472;-122.822;2023-03-05T02:03:33;3.63;;;1.43;;
6374;SDS011;35400;45.472;-122.822;2023-03-05T02:06:01;2.40;;;1.10;;
6374;SDS011;35400;45.472;-122.822;2023-03-05T02:08:28;1.60;;;0.70;;
6374;SDS011;35400;45.472;-122.822;2023-03-05T02:10:55;4.90;;;0.90;;
6374;SDS011;35400;45.472;-122.822;2023-03-05T02:13:23;1.50;;;0.80;;
6374;SDS011;35400;45.472;-122.822;2023-03-05T02:15:53;1.63;;;1.03;;
6374;SDS011;35400;45.472;-122.822;2023-03-05T02:18:21;2.17;;;1.10;;
6374;SDS011;35400;45.472;-122.822;2023-03-05T02:20:52;0.77;;;0.60;;
6374;SDS011;35400;45.472;-122.822;2023-03-05T02:23:23;2.40;;;1.13;;
6374;SDS011;35400;45.472;-122.822;2023-03-05T02:25:51;0.93;;;0.70;;
6374;SDS011;35400;45.472;-122.822;2023-03-05T02:31:14;1.03;;;0.80;;
6374;SDS011;35400;45.472;-122.822;2023-03-05T02:33:44;2.00;;;0.80;;
6374;SDS011;35400;45.472;-122.822;2023-03-05T02:36:12;1.70;;;0.80;;
6374;SDS011;35400;45.472;-122.822;2023-03-05T02:38:41;1.33;;;0.60;;
6374;SDS011;35400;45.472;-122.822;2023-03-05T02:41:08;2.13;;;0.80;;
6374;SDS011;35400;45.472;-122.822;2023-03-05T02:43:35;1.27;;;1.00;;
6374;SDS011;35400;45.472;-122.822;2023-03-05T02:46:03;1.17;;;0.73;;
6374;SDS011;35400;45.472;-122.822;2023-03-05T02:48:31;2.50;;;0.90;;
6374;SDS011;35400;45.472;-122.822;2023-03-05T02:50:58;1.63;;;0.80;;
6374;SDS011;35400;45.472;-122.822;2023-03-05T02:53:26;2.60;;;1.10;;
6374;SDS011;35400;45.472;-122.822;2023-03-05T02:55:53;4.07;;;1.00;;
6374;SDS011;35400;45.472;-122.822;2023-03-05T02:58:19;1.07;;;0.90;;
6374;SDS011;35400;45.472;-122.822;2023-03-05T03:00:46;2.23;;;1.40;;
6374;SDS011;35400;45.472;-122.822;2023-03-05T03:03:14;2.00;;;1.07;;
6374;SDS011;35400;45.472;-122.822;2023-03-05T03:05:41;2.17;;;1.20;;
6374;SDS011;35400;45.472;-122.822;2023-03-05T03:08:08;1.87;;;1.10;;
6374;SDS011;35400;45.472;-122.822;2023-03-05T03:10:36;1.70;;;1.30;;
6374;SDS011;35400;45.472;-122.822;2023-03-05T03:13:03;0.97;;;0.87;;
6374;SDS011;35400;45.472;-122.822;2023-03-05T03:15:30;3.97;;;1.30;;
6374;SDS011;35400;45.472;-122.822;2023-03-05T03:17:57;3.07;;;1.43;;
6374;SDS011;35400;45.472;-122.822;2023-03-05T03:20:24;1.53;;;1.07;;
6374;SDS011;35400;45.472;-122.822;2023-03-05T03:22:50;3.47;;;1.53;;
6374;SDS011;35400;45.472;-122.822;2023-03-05T03:25:19;1.17;;;0.97;;
6374;SDS011;35400;45.472;-122.822;2023-03-05T03:27:50;1.60;;;1.10;;
6374;SDS011;35400;45.472;-122.822;2023-03-05T03:30:17;3.97;;;1.10;;
6374;SDS011;35400;45.472;-122.822;2023-03-05T03:32:44;1.27;;;1.10;;
6374;SDS011;35400;45.472;-122.822;2023-03-05T03:35:11;2.93;;;0.97;;
6374;SDS011;35400;45.472;-122.822;2023-03-05T03:37:38;3.83;;;1.30;;
6374;SDS011;35400;45.472;-122.822;2023-03-05T03:40:05;3.00;;;1.20;;
6374;SDS011;35400;45.472;-122.822;2023-03-05T03:42:32;2.20;;;0.97;;
6374;SDS011;35400;45.472;-122.822;2023-03-05T03:44:59;2.73;;;1.07;;
6374;SDS011;35400;45.472;-122.822;2023-03-05T03:47:27;1.57;;;0.97;;
6374;SDS011;35400;45.472;-122.822;2023-03-05T03:49:54;3.27;;;1.10;;
6374;SDS011;35400;45.472;-122.822;2023-03-05T03:52:23;2.10;;;0.90;;
6374;SDS011;35400;45.472;-122.822;2023-03-05T03:54:50;1.70;;;1.00;;
6374;SDS011;35400;45.472;-122.822;2023-03-05T03:57:18;2.07;;;1.37;;
6374;SDS011;35400;45.472;-122.822;2023-03-05T03:59:45;3.50;;;1.40;;
6374;SDS011;35400;45.472;-122.822;2023-03-05T04:02:12;3.37;;;1.10;;
6374;SDS011;35400;45.472;-122.822;2023-03-05T04:04:39;2.33;;;1.13;;
6374;SDS011;35400;45.472;-122.822;2023-03-05T04:07:06;6.93;;;1.40;;
6374;SDS011;35400;45.472;-122.822;2023-03-05T04:09:33;3.20;;;1.10;;
6374;SDS011;35400;45.472;-122.822;2023-03-05T04:11:59;1.20;;;1.10;;
6374;SDS011;35400;45.472;-122.822;2023-03-05T04:14:26;0.80;;;0.80;;
6374;SDS011;35400;45.472;-122.822;2023-03-05T04:16:53;1.33;;;1.00;;
6374;SDS011;35400;45.472;-122.822;2023-03-05T04:19:20;1.83;;;1.17;;
6374;SDS011;35400;45.472;-122.822;2023-03-05T04:21:47;2.30;;;1.10;;
6374;SDS011;35400;45.472;-122.822;2023-03-05T04:24:14;2.00;;;1.07;;
6374;SDS011;35400;45.472;-122.822;2023-03-05T04:26:41;1.30;;;1.00;;
6374;SDS011;35400;45.472;-122.822;2023-03-05T04:29:07;2.77;;;1.20;;
6374;SDS011;35400;45.472;-122.822;2023-03-05T04:31:34;3.43;;;1.47;;
6374;SDS011;35400;45.472;-122.822;2023-03-05T04:34:01;1.63;;;1.10;;
6374;SDS011;35400;45.472;-122.822;2023-03-05T04:36:28;3.23;;;1.30;;
6374;SDS011;35400;45.472;-122.822;2023-03-05T04:38:54;2.60;;;1.57;;
6374;SDS011;35400;45.472;-122.822;2023-03-05T04:41:21;2.30;;;1.50;;
6374;SDS011;35400;45.472;-122.822;2023-03-05T04:43:48;2.70;;;1.53;;
6374;SDS011;35400;45.472;-122.822;2023-03-05T04:46:15;2.73;;;1.70;;
6374;SDS011;35400;45.472;-122.822;2023-03-05T04:48:42;3.50;;;1.80;;
6374;SDS011;35400;45.472;-122.822;2023-03-05T04:51:08;1.90;;;1.40;;
6374;SDS011;35400;45.472;-122.822;2023-03-05T04:53:35;2.97;;;1.63;;
6374;SDS011;35400;45.472;-122.822;2023-03-05T04:56:02;3.30;;;2.10;;
6374;SDS011;35400;45.472;-122.822;2023-03-05T04:58:29;2.73;;;1.60;;
6374;SDS011;35400;45.472;-122.822;2023-03-05T05:01:00;4.60;;;2.40;;
6374;SDS011;35400;45.472;-122.822;2023-03-05T05:03:28;2.87;;;2.00;;
6374;SDS011;35400;45.472;-122.822;2023-03-05T05:05:56;5.17;;;2.67;;
6374;SDS011;35400;45.472;-122.822;2023-03-05T05:08:24;5.47;;;2.50;;
6374;SDS011;35400;45.472;-122.822;2023-03-05T05:11:02;4.33;;;2.63;;
6374;SDS011;35400;45.472;-122.822;2023-03-05T05:13:31;4.57;;;2.97;;
6374;SDS011;35400;45.472;-122.822;2023-03-05T05:15:58;5.87;;;3.07;;
6374;SDS011;35400;45.472;-122.822;2023-03-05T05:18:26;6.37;;;3.20;;
6374;SDS011;35400;45.472;-122.822;2023-03-05T05:20:52;4.83;;;3.03;;
6374;SDS011;35400;45.472;-122.822;2023-03-05T05:23:19;8.30;;;3.50;;
6374;SDS011;35400;45.472;-122.822;2023-03-05T05:25:54;5.33;;;3.53;;
6374;SDS011;35400;45.472;-122.822;2023-03-05T05:28:24;5.80;;;2.77;;
6374;SDS011;35400;45.472;-122.822;2023-03-05T05:30:51;4.50;;;2.90;;
6374;SDS011;35400;45.472;-122.822;2023-03-05T05:33:19;5.77;;;3.13;;
6374;SDS011;35400;45.472;-122.822;2023-03-05T05:35:46;4.27;;;2.77;;
6374;SDS011;35400;45.472;-122.822;2023-03-05T05:38:13;5.23;;;2.87;;
6374;SDS011;35400;45.472;-122.822;2023-03-05T05:40:40;2.97;;;2.30;;
6374;SDS011;35400;45.472;-122.822;2023-03-05T05:43:07;4.97;;;2.67;;
6374;SDS011;35400;45.472;-122.822;2023-03-05T05:45:36;7.07;;;2.30;;
6374;SDS011;35400;45.472;-122.822;2023-03-05T05:48:03;3.73;;;2.30;;
6374;SDS011;35400;45.472;-122.822;2023-03-05T05:50:30;5.60;;;2.63;;
6374;SDS011;35400;45.472;-122.822;2023-03-05T05:52:57;4.80;;;2.43;;
6374;SDS011;35400;45.472;-122.822;2023-03-05T05:55:23;4.00;;;2.23;;
6374;SDS011;35400;45.472;-122.822;2023-03-05T05:57:50;4.77;;;3.10;;
6374;SDS011;35400;45.472;-122.822;2023-03-05T06:00:17;5.83;;;2.93;;
6374;SDS011;35400;45.472;-122.822;2023-03-05T06:02:44;3.87;;;2.50;;
6374;SDS011;35400;45.472;-122.822;2023-03-05T06:05:11;5.23;;;2.70;;
6374;SDS011;35400;45.472;-122.822;2023-03-05T06:07:39;4.57;;;2.00;;
6374;SDS011;35400;45.472;-122.822;2023-03-05T06:10:08;4.00;;;2.40;;
6374;SDS011;35400;45.472;-122.822;2023-03-05T06:12:35;3.67;;;2.60;;
6374;SDS011;35400;45.472;-122.822;2023-03-05T06:15:02;3.83;;;2.47;;
6374;SDS011;35400;45.472;-122.822;2023-03-05T06:17:29;3.97;;;2.20;;
6374;SDS011;35400;45.472;-122.822;2023-03-05T06:19:56;2.93;;;2.03;;
6374;SDS011;35400;45.472;-122.822;2023-03-05T06:22:23;3.60;;;2.03;;
6374;SDS011;35400;45.472;-122.822;2023-03-05T06:24:50;2.83;;;1.30;;
6374;SDS011;35400;45.472;-122.822;2023-03-05T06:27:17;1.53;;;1.43;;
6374;SDS011;35400;45.472;-122.822;2023-03-05T06:29:44;2.27;;;1.30;;
6374;SDS011;35400;45.472;-122.822;2023-03-05T06:32:10;2.27;;;1.43;;
6374;SDS011;35400;45.472;-122.822;2023-03-05T06:34:37;3.57;;;1.43;;
6374;SDS011;35400;45.472;-122.822;2023-03-05T06:37:04;1.80;;;1.23;;
6374;SDS011;35400;45.472;-122.822;2023-03-05T06:39:32;3.43;;;1.30;;
6374;SDS011;35400;45.472;-122.822;2023-03-05T06:41:58;1.80;;;1.23;;
6374;SDS011;35400;45.472;-122.822;2023-03-05T06:44:25;2.57;;;1.40;;
6374;SDS011;35400;45.472;-122.822;2023-03-05T06:46:52;3.77;;;1.97;;
6374;SDS011;35400;45.472;-122.822;2023-03-05T06:49:19;2.00;;;1.73;;
6374;SDS011;35400;45.472;-122.822;2023-03-05T06:51:46;4.50;;;2.13;;
6374;SDS011;35400;45.472;-122.822;2023-03-05T06:54:13;2.00;;;1.80;;
6374;SDS011;35400;45.472;-122.822;2023-03-05T06:56:43;2.63;;;1.50;;
6374;SDS011;35400;45.472;-122.822;2023-03-05T06:59:11;3.03;;;1.70;;
6374;SDS011;35400;45.472;-122.822;2023-03-05T07:01:41;4.27;;;1.87;;
6374;SDS011;35400;45.472;-122.822;2023-03-05T07:04:09;2.77;;;1.80;;
6374;SDS011;35400;45.472;-122.822;2023-03-05T07:06:38;3.00;;;1.90;;
6374;SDS011;35400;45.472;-122.822;2023-03-05T07:09:05;2.33;;;1.60;;
6374;SDS011;35400;45.472;-122.822;2023-03-05T07:11:33;2.53;;;1.90;;
6374;SDS011;35400;45.472;-122.822;2023-03-05T07:14:01;2.47;;;1.47;;
6374;SDS011;35400;45.472;-122.822;2023-03-05T07:16:30;3.83;;;1.73;;
6374;SDS011;35400;45.472;-122.822;2023-03-05T07:18:58;2.57;;;1.30;;
6374;SDS011;35400;45.472;-122.822;2023-03-05T07:21:28;1.47;;;1.00;;
6374;SDS011;35400;45.472;-122.822;2023-03-05T07:23:58;1.10;;;1.00;;
6374;SDS011;35400;45.472;-122.822;2023-03-05T07:26:26;1.00;;;0.90;;
6374;SDS011;35400;45.472;-122.822;2023-03-05T07:28:53;1.23;;;0.80;;
6374;SDS011;35400;45.472;-122.822;2023-03-05T07:31:22;1.30;;;0.83;;
6374;SDS011;35400;45.472;-122.822;2023-03-05T07:33:56;0.87;;;0.80;;
6374;SDS011;35400;45.472;-122.822;2023-03-05T07:36:25;1.10;;;0.80;;
6374;SDS011;35400;45.472;-122.822;2023-03-05T07:38:52;1.00;;;0.90;;
6374;SDS011;35400;45.472;-122.822;2023-03-05T07:41:19;0.53;;;0.53;;
6374;SDS011;35400;45.472;-122.822;2023-03-05T07:43:49;0.60;;;0.60;;
6374;SDS011;35400;45.472;-122.822;2023-03-05T07:46:17;0.83;;;0.60;;
6374;SDS011;35400;45.472;-122.822;2023-03-05T07:48:47;0.70;;;0.70;;
6374;SDS011;35400;45.472;-122.822;2023-03-05T07:51:15;0.70;;;0.70;;
6374;SDS011;35400;45.472;-122.822;2023-03-05T07:53:45;1.40;;;0.70;;
6374;SDS011;35400;45.472;-122.822;2023-03-05T07:56:13;0.67;;;0.67;;
6374;SDS011;35400;45.472;-122.822;2023-03-05T07:59:03;0.67;;;0.60;;
6374;SDS011;35400;45.472;-122.822;2023-03-05T08:01:33;0.67;;;0.67;;
6374;SDS011;35400;45.472;-122.822;2023-03-05T08:04:01;0.93;;;0.90;;
6374;SDS011;35400;45.472;-122.822;2023-03-05T08:06:28;1.67;;;0.70;;
6374;SDS011;35400;45.472;-122.822;2023-03-05T08:08:56;0.50;;;0.50;;
6374;SDS011;35400;45.472;-122.822;2023-03-05T08:11:23;1.97;;;0.80;;
6374;SDS011;35400;45.472;-122.822;2023-03-05T08:13:50;0.60;;;0.60;;
6374;SDS011;35400;45.472;-122.822;2023-03-05T08:16:18;0.93;;;0.73;;
6374;SDS011;35400;45.472;-122.822;2023-03-05T08:18:46;2.30;;;0.97;;
6374;SDS011;35400;45.472;-122.822;2023-03-05T08:21:17;1.80;;;1.17;;
6374;SDS011;35400;45.472;-122.822;2023-03-05T08:24:00;1.00;;;1.00;;
6374;SDS011;35400;45.472;-122.822;2023-03-05T08:26:29;0.60;;;0.60;;
6374;SDS011;35400;45.472;-122.822;2023-03-05T08:28:57;1.63;;;0.80;;
6374;SDS011;35400;45.472;-122.822;2023-03-05T08:31:24;0.80;;;0.80;;
6374;SDS011;35400;45.472;-122.822;2023-03-05T08:33:53;1.07;;;0.77;;
6374;SDS011;35400;45.472;-122.822;2023-03-05T08:36:21;2.03;;;0.80;;
6374;SDS011;35400;45.472;-122.822;2023-03-05T08:38:48;0.60;;;0.60;;
6374;SDS011;35400;45.472;-122.822;2023-03-05T08:41:16;0.87;;;0.63;;
6374;SDS011;35400;45.472;-122.822;2023-03-05T08:43:43;1.30;;;0.70;;
6374;SDS011;35400;45.472;-122.822;2023-03-05T08:46:11;1.43;;;0.70;;
6374;SDS011;35400;45.472;-122.822;2023-03-05T08:48:38;0.90;;;0.80;;
6374;SDS011;35400;45.472;-122.822;2023-03-05T08:51:06;1.03;;;0.90;;
6374;SDS011;35400;45.472;-122.822;2023-03-05T08:53:35;2.07;;;0.80;;
6374;SDS011;35400;45.472;-122.822;2023-03-05T08:56:01;0.90;;;0.70;;
6374;SDS011;35400;45.472;-122.822;2023-03-05T08:58:29;0.60;;;0.60;;
6374;SDS011;35400;45.472;-122.822;2023-03-05T09:00:55;0.60;;;0.60;;
6374;SDS011;35400;45.472;-122.822;2023-03-05T09:03:23;2.93;;;0.90;;
6374;SDS011;35400;45.472;-122.822;2023-03-05T09:05:50;0.93;;;0.83;;
6374;SDS011;35400;45.472;-122.822;2023-03-05T09:08:17;0.80;;;0.80;;
6374;SDS011;35400;45.472;-122.822;2023-03-05T09:10:44;1.03;;;0.90;;
6374;SDS011;35400;45.472;-122.822;2023-03-05T09:13:11;1.77;;;1.10;;
6374;SDS011;35400;45.472;-122.822;2023-03-05T09:15:38;2.93;;;1.63;;
6374;SDS011;35400;45.472;-122.822;2023-03-05T09:18:05;1.70;;;1.60;;
6374;SDS011;35400;45.472;-122.822;2023-03-05T09:20:34;1.77;;;1.50;;
6374;SDS011;35400;45.472;-122.822;2023-03-05T09:23:02;2.03;;;1.13;;
6374;SDS011;35400;45.472;-122.822;2023-03-05T09:25:28;2.70;;;1.53;;
6374;SDS011;35400;45.472;-122.822;2023-03-05T09:27:55;3.03;;;1.63;;
6374;SDS011;35400;45.472;-122.822;2023-03-05T09:30:22;2.23;;;1.50;;
6374;SDS011;35400;45.472;-122.822;2023-03-05T09:32:49;1.60;;;1.10;;
6374;SDS011;35400;45.472;-122.822;2023-03-05T09:35:16;1.37;;;1.23;;
6374;SDS011;35400;45.472;-122.822;2023-03-05T09:37:43;1.10;;;1.00;;
6374;SDS011;35400;45.472;-122.822;2023-03-05T09:40:12;2.03;;;1.20;;
6374;SDS011;35400;45.472;-122.822;2023-03-05T09:56:09;3.50;;;1.67;;
6374;SDS011;35400;45.472;-122.822;2023-03-05T09:58:39;1.93;;;1.30;;
6374;SDS011;35400;45.472;-122.822;2023-03-05T10:01:23;2.57;;;1.23;;
6374;SDS011;35400;45.472;-122.822;2023-03-05T10:04:09;1.83;;;1.67;;
6374;SDS011;35400;45.472;-122.822;2023-03-05T10:07:40;1.57;;;1.23;;
6374;SDS011;35400;45.472;-122.822;2023-03-05T10:10:03;2.73;;;1.70;;
6374;SDS011;35400;45.472;-122.822;2023-03-05T10:12:44;2.87;;;1.50;;
6374;SDS011;35400;45.472;-122.822;2023-03-05T10:34:19;2.73;;;2.40;;
6374;SDS011;35400;45.472;-122.822;2023-03-05T10:36:56;3.77;;;2.03;;
6374;SDS011;35400;45.472;-122.822;2023-03-05T10:50:17;2.00;;;1.40;;
6374;SDS011;35400;45.472;-122.822;2023-03-05T10:55:35;1.77;;;1.33;;
6374;SDS011;35400;45.472;-122.822;2023-03-05T10:58:08;2.40;;;1.93;;
6374;SDS011;35400;45.472;-122.822;2023-03-05T11:00:40;1.50;;;1.40;;
6374;SDS011;35400;45.472;-122.822;2023-03-05T11:03:24;2.50;;;1.40;;
6374;SDS011;35400;45.472;-122.822;2023-03-05T11:06:00;2.47;;;1.23;;
6374;SDS011;35400;45.472;-122.822;2023-03-05T11:08:32;1.53;;;1.40;;
6374;SDS011;35400;45.472;-122.822;2023-03-05T11:11:15;1.97;;;1.30;;
6374;SDS011;35400;45.472;-122.822;2023-03-05T11:16:30;1.20;;;1.10;;
6374;SDS011;35400;45.472;-122.822;2023-03-05T11:21:41;2.80;;;1.43;;
6374;SDS011;35400;45.472;-122.822;2023-03-05T11:26:48;1.40;;;1.30;;
6374;SDS011;35400;45.472;-122.822;2023-03-05T11:29:24;1.40;;;1.30;;
6374;SDS011;35400;45.472;-122.822;2023-03-05T11:31:53;1.50;;;1.40;;
6374;SDS011;35400;45.472;-122.822;2023-03-05T11:34:39;2.17;;;1.73;;
6374;SDS011;35400;45.472;-122.822;2023-03-05T11:37:10;2.60;;;1.63;;
6374;SDS011;35400;45.472;-122.822;2023-03-05T11:39:52;1.87;;;1.30;;
6374;SDS011;35400;45.472;-122.822;2023-03-05T11:42:45;2.23;;;1.47;;
6374;SDS011;35400;45.472;-122.822;2023-03-05T11:45:20;2.17;;;1.90;;
6374;SDS011;35400;45.472;-122.822;2023-03-05T11:47:49;1.50;;;1.30;;
6374;SDS011;35400;45.472;-122.822;2023-03-05T11:50:23;3.37;;;1.77;;
6374;SDS011;35400;45.472;-122.822;2023-03-05T11:58:47;2.40;;;1.63;;
6374;SDS011;35400;45.472;-122.822;2023-03-05T12:01:19;1.67;;;1.57;;
6374;SDS011;35400;45.472;-122.822;2023-03-05T12:03:48;1.87;;;1.70;;
6374;SDS011;35400;45.472;-122.822;2023-03-05T12:06:17;1.67;;;1.50;;
6374;SDS011;35400;45.472;-122.822;2023-03-05T12:08:47;3.23;;;1.60;;
6374;SDS011;35400;45.472;-122.822;2023-03-05T12:11:28;2.07;;;1.80;;
6374;SDS011;35400;45.472;-122.822;2023-03-05T12:14:00;4.70;;;2.90;;
6374;SDS011;35400;45.472;-122.822;2023-03-05T12:17:26;3.53;;;3.10;;
6374;SDS011;35400;45.472;-122.822;2023-03-05T12:20:00;4.23;;;2.50;;
6374;SDS011;35400;45.472;-122.822;2023-03-05T12:22:52;2.23;;;2.03;;
6374;SDS011;35400;45.472;-122.822;2023-03-05T12:25:31;1.97;;;1.80;;
6374;SDS011;35400;45.472;-122.822;2023-03-05T12:28:00;1.90;;;1.77;;
6374;SDS011;35400;45.472;-122.822;2023-03-05T12:33:03;2.63;;;2.27;;
6374;SDS011;35400;45.472;-122.822;2023-03-05T12:35:38;4.07;;;2.80;;
6374;SDS011;35400;45.472;-122.822;2023-03-05T12:38:27;2.93;;;2.20;;
6374;SDS011;35400;45.472;-122.822;2023-03-05T12:51:44;3.50;;;2.37;;
6374;SDS011;35400;45.472;-122.822;2023-03-05T12:56:48;3.10;;;2.70;;
6374;SDS011;35400;45.472;-122.822;2023-03-05T12:59:18;4.47;;;2.67;;
6374;SDS011;35400;45.472;-122.822;2023-03-05T13:01:52;5.87;;;2.90;;
6374;SDS011;35400;45.472;-122.822;2023-03-05T13:04:29;8.33;;;3.60;;
6374;SDS011;35400;45.472;-122.822;2023-03-05T13:07:02;4.40;;;3.40;;
6374;SDS011;35400;45.472;-122.822;2023-03-05T13:09:32;5.33;;;3.10;;
6374;SDS011;35400;45.472;-122.822;2023-03-05T13:12:01;4.20;;;3.40;;
6374;SDS011;35400;45.472;-122.822;2023-03-05T13:14:36;5.20;;;3.23;;
6374;SDS011;35400;45.472;-122.822;2023-03-05T13:20:21;3.73;;;2.80;;
6374;SDS011;35400;45.472;-122.822;2023-03-05T13:23:17;3.23;;;2.53;;
6374;SDS011;35400;45.472;-122.822;2023-03-05T13:26:21;2.73;;;2.50;;
6374;SDS011;35400;45.472;-122.822;2023-03-05T13:29:02;2.60;;;2.13;;
6374;SDS011;35400;45.472;-122.822;2023-03-05T13:31:51;5.67;;;2.87;;
6374;SDS011;35400;45.472;-122.822;2023-03-05T13:37:00;5.07;;;3.90;;
6374;SDS011;35400;45.472;-122.822;2023-03-05T13:39:39;7.20;;;3.87;;
6374;SDS011;35400;45.472;-122.822;2023-03-05T13:42:27;4.77;;;3.47;;
6374;SDS011;35400;45.472;-122.822;2023-03-05T13:45:03;3.70;;;2.93;;
6374;SDS011;35400;45.472;-122.822;2023-03-05T13:47:32;3.20;;;2.80;;
6374;SDS011;35400;45.472;-122.822;2023-03-05T13:50:02;3.87;;;2.37;;
6374;SDS011;35400;45.472;-122.822;2023-03-05T13:52:35;4.53;;;2.57;;
6374;SDS011;35400;45.472;-122.822;2023-03-05T13:55:09;4.07;;;2.40;;
6374;SDS011;35400;45.472;-122.822;2023-03-05T13:57:40;2.97;;;2.50;;
6374;SDS011;35400;45.472;-122.822;2023-03-05T14:02:59;4.47;;;2.93;;
6374;SDS011;35400;45.472;-122.822;2023-03-05T14:05:47;3.93;;;2.50;;
6374;SDS011;35400;45.472;-122.822;2023-03-05T14:08:20;3.43;;;2.77;;
6374;SDS011;35400;45.472;-122.822;2023-03-05T14:10:50;3.47;;;2.87;;
6374;SDS011;35400;45.472;-122.822;2023-03-05T14:13:20;4.00;;;2.83;;
6374;SDS011;35400;45.472;-122.822;2023-03-05T14:16:52;3.77;;;2.90;;
6374;SDS011;35400;45.472;-122.822;2023-03-05T14:18:52;3.60;;;2.83;;
6374;SDS011;35400;45.472;-122.822;2023-03-05T14:21:23;4.00;;;2.43;;
6374;SDS011;35400;45.472;-122.822;2023-03-05T14:23:51;3.73;;;2.90;;
6374;SDS011;35400;45.472;-122.822;2023-03-05T14:26:21;4.27;;;2.60;;
6374;SDS011;35400;45.472;-122.822;2023-03-05T14:31:44;3.33;;;3.00;;
6374;SDS011;35400;45.472;-122.822;2023-03-05T14:34:16;3.67;;;2.60;;
6374;SDS011;35400;45.472;-122.822;2023-03-05T14:37:06;5.63;;;2.60;;
6374;SDS011;35400;45.472;-122.822;2023-03-05T14:42:32;4.30;;;3.20;;
6374;SDS011;35400;45.472;-122.822;2023-03-05T14:47:40;3.63;;;3.27;;
6374;SDS011;35400;45.472;-122.822;2023-03-05T14:50:09;4.77;;;3.50;;
6374;SDS011;35400;45.472;-122.822;2023-03-05T14:52:45;4.90;;;3.47;;
6374;SDS011;35400;45.472;-122.822;2023-03-05T14:55:15;4.00;;;3.03;;
6374;SDS011;35400;45.472;-122.822;2023-03-05T14:57:43;4.07;;;3.60;;
6374;SDS011;35400;45.472;-122.822;2023-03-05T15:00:21;5.53;;;4.20;;
6374;SDS011;35400;45.472;-122.822;2023-03-05T15:02:54;5.60;;;4.33;;
6374;SDS011;35400;45.472;-122.822;2023-03-05T15:05:22;4.97;;;4.03;;
6374;SDS011;35400;45.472;-122.822;2023-03-05T15:07:49;5.40;;;4.43;;
6374;SDS011;35400;45.472;-122.822;2023-03-05T15:10:17;6.67;;;4.93;;
6374;SDS011;35400;45.472;-122.822;2023-03-05T15:12:47;7.90;;;5.37;;
6374;SDS011;35400;45.472;-122.822;2023-03-05T15:15:15;9.10;;;5.50;;
6374;SDS011;35400;45.472;-122.822;2023-03-05T15:17:45;8.60;;;6.13;;
6374;SDS011;35400;45.472;-122.822;2023-03-05T15:20:17;11.30;;;6.83;;
6374;SDS011;35400;45.472;-122.822;2023-03-05T15:22:46;10.30;;;7.27;;
6374;SDS011;35400;45.472;-122.822;2023-03-05T15:25:13;10.30;;;7.60;;
6374;SDS011;35400;45.472;-122.822;2023-03-05T15:27:40;12.10;;;8.30;;
6374;SDS011;35400;45.472;-122.822;2023-03-05T15:30:08;11.20;;;8.43;;
6374;SDS011;35400;45.472;-122.822;2023-03-05T15:32:42;11.00;;;9.77;;
6374;SDS011;35400;45.472;-122.822;2023-03-05T15:35:09;8.90;;;6.73;;
6374;SDS011;35400;45.472;-122.822;2023-03-05T15:37:36;11.80;;;8.23;;
6374;SDS011;35400;45.472;-122.822;2023-03-05T15:40:03;9.43;;;7.40;;
6374;SDS011;35400;45.472;-122.822;2023-03-05T15:42:30;9.07;;;6.90;;
6374;SDS011;35400;45.472;-122.822;2023-03-05T15:44:57;7.13;;;6.33;;
6374;SDS011;35400;45.472;-122.822;2023-03-05T15:47:24;6.50;;;5.27;;
6374;SDS011;35400;45.472;-122.822;2023-03-05T15:49:51;7.73;;;6.03;;
6374;SDS011;35400;45.472;-122.822;2023-03-05T15:52:18;6.77;;;4.93;;
6374;SDS011;35400;45.472;-122.822;2023-03-05T15:54:45;6.10;;;4.93;;
6374;SDS011;35400;45.472;-122.822;2023-03-05T15:57:12;5.43;;;4.73;;
6374;SDS011;35400;45.472;-122.822;2023-03-05T15:59:39;5.57;;;4.53;;
6374;SDS011;35400;45.472;-122.822;2023-03-05T16:02:06;5.33;;;4.20;;
6374;SDS011;35400;45.472;-122.822;2023-03-05T16:04:32;5.57;;;4.80;;
6374;SDS011;35400;45.472;-122.822;2023-03-05T16:06:59;5.60;;;4.37;;
6374;SDS011;35400;45.472;-122.822;2023-03-05T16:09:29;7.67;;;4.30;;
6374;SDS011;35400;45.472;-122.822;2023-03-05T16:11:59;8.87;;;4.93;;
6374;SDS011;35400;45.472;-122.822;2023-03-05T16:14:27;6.80;;;4.27;;
6374;SDS011;35400;45.472;-122.822;2023-03-05T16:16:55;6.50;;;4.67;;